createdAt,value
2022-10-02T00:02:26.635Z,4.37
2022-10-02T00:05:14.977Z,4.20
2022-10-02T00:08:10.215Z,4.27
2022-10-02T00:10:45.388Z,3.73
2022-10-02T00:13:17.802Z,4.13
2022-10-02T00:15:44.790Z,4.37
2022-10-02T00:18:20.137Z,4.17
2022-10-02T00:21:02.996Z,4.03
2022-10-02T00:23:37.902Z,3.70
2022-10-02T00:26:18.986Z,3.97
2022-10-02T00:29:14.628Z,3.50
2022-10-02T00:31:54.662Z,3.83
2022-10-02T00:34:38.749Z,3.20
2022-10-02T00:37:36.513Z,3.47
2022-10-02T00:40:32.439Z,3.80
2022-10-02T00:43:19.048Z,3.57
2022-10-02T00:46:16.199Z,3.50
2022-10-02T00:48:57.804Z,3.40
2022-10-02T00:51:52.143Z,3.83
2022-10-02T00:54:40.395Z,3.80
2022-10-02T00:57:29.931Z,3.73
2022-10-02T00:59:59.322Z,3.90
2022-10-02T01:02:31.930Z,3.43
2022-10-02T01:05:02.163Z,3.77
2022-10-02T01:07:28.900Z,4.00
2022-10-02T01:09:55.607Z,3.60
2022-10-02T01:12:22.985Z,3.40
2022-10-02T01:14:49.523Z,4.10
2022-10-02T01:17:33.099Z,3.77
2022-10-02T01:20:04.879Z,3.80
2022-10-02T01:22:43.812Z,4.13
2022-10-02T01:25:10.252Z,3.40
2022-10-02T01:27:39.318Z,3.57
2022-10-02T01:30:10.000Z,3.23
2022-10-02T01:32:41.520Z,3.23
2022-10-02T01:35:08.800Z,3.70
2022-10-02T01:37:37.927Z,3.37
2022-10-02T01:40:10.719Z,3.43
2022-10-02T01:42:39.660Z,3.80
2022-10-02T01:45:08.946Z,3.47
2022-10-02T01:47:52.708Z,3.70
2022-10-02T01:50:32.788Z,3.70
2022-10-02T01:53:31.761Z,3.70
2022-10-02T01:56:07.870Z,4.07
2022-10-02T01:59:02.409Z,3.60
2022-10-02T02:01:40.431Z,3.87
2022-10-02T02:04:15.313Z,4.93
2022-10-02T02:06:48.312Z,4.80
2022-10-02T02:09:48.595Z,4.67
2022-10-02T02:12:30.489Z,4.30
2022-10-02T02:15:09.871Z,4.20
2022-10-02T02:17:52.340Z,4.00
2022-10-02T02:20:28.579Z,6.03
2022-10-02T02:23:01.919Z,5.10
2022-10-02T02:25:32.244Z,4.77
2022-10-02T02:28:03.340Z,4.70
2022-10-02T02:30:32.182Z,5.30
2022-10-02T02:33:27.527Z,4.67
2022-10-02T02:36:00.715Z,4.57
2022-10-02T02:38:39.916Z,4.83
2022-10-02T02:41:13.154Z,4.77
2022-10-02T02:43:48.750Z,5.23
2022-10-02T02:46:25.121Z,4.57
2022-10-02T02:48:59.689Z,4.60
2022-10-02T02:51:36.468Z,5.13
2022-10-02T02:54:12.857Z,4.33
2022-10-02T02:56:43.890Z,5.10
2022-10-02T02:59:12.617Z,4.93
2022-10-02T03:01:40.249Z,5.03
2022-10-02T03:04:07.125Z,4.67
2022-10-02T03:06:38.229Z,4.33
2022-10-02T03:09:12.895Z,4.50
2022-10-02T03:11:45.476Z,5.37
2022-10-02T03:14:18.014Z,4.83
2022-10-02T03:17:01.387Z,4.50
2022-10-02T03:19:57.976Z,5.37
2022-10-02T03:22:43.219Z,5.53
2022-10-02T03:25:21.992Z,4.90
2022-10-02T03:27:53.954Z,5.30
2022-10-02T03:30:21.962Z,5.30
2022-10-02T03:32:53.398Z,4.93
2022-10-02T03:35:22.540Z,5.73
2022-10-02T03:37:52.889Z,5.00
2022-10-02T03:40:26.172Z,6.63
2022-10-02T03:42:53.825Z,5.60
2022-10-02T03:45:39.346Z,6.23
2022-10-02T03:48:06.709Z,5.83
2022-10-02T03:50:36.446Z,5.27
2022-10-02T03:53:12.575Z,4.70
2022-10-02T03:55:43.800Z,4.10
2022-10-02T03:58:15.730Z,3.90
2022-10-02T04:01:21.207Z,3.70
2022-10-02T04:04:08.805Z,3.20
2022-10-02T04:06:35.409Z,3.10
2022-10-02T04:09:14.043Z,2.90
2022-10-02T04:11:58.520Z,3.07
2022-10-02T04:14:33.944Z,2.50
2022-10-02T04:17:15.570Z,2.50
2022-10-02T04:19:57.464Z,3.30
2022-10-02T04:22:37.327Z,2.90
2022-10-02T04:25:10.828Z,3.93
2022-10-02T04:27:41.948Z,3.67
2022-10-02T04:30:16.358Z,3.23
2022-10-02T04:32:43.134Z,4.13
2022-10-02T04:35:13.459Z,4.20
2022-10-02T04:37:48.896Z,3.83
2022-10-02T04:40:18.194Z,4.00
2022-10-02T04:43:14.023Z,3.57
2022-10-02T04:46:17.335Z,4.43
2022-10-02T04:48:43.728Z,2.40
2022-10-02T04:51:31.932Z,2.63
2022-10-02T04:54:18.592Z,3.23
2022-10-02T04:56:54.186Z,2.97
2022-10-02T04:59:46.941Z,2.67
2022-10-02T05:02:41.646Z,2.40
2022-10-02T05:05:45.855Z,2.87
2022-10-02T05:08:49.491Z,2.57
2022-10-02T05:11:43.887Z,2.73
2022-10-02T05:14:13.253Z,2.10
2022-10-02T05:17:07.596Z,4.43
2022-10-02T05:19:46.120Z,4.00
2022-10-02T05:22:28.644Z,4.03
2022-10-02T05:25:07.598Z,4.10
2022-10-02T05:27:43.087Z,4.47
2022-10-02T05:30:18.408Z,5.10
2022-10-02T05:33:03.644Z,4.60
2022-10-02T05:35:42.291Z,4.30
2022-10-02T05:38:25.906Z,8.93
2022-10-02T05:41:03.899Z,5.07
2022-10-02T05:43:48.035Z,4.70
2022-10-02T05:46:26.719Z,4.10
2022-10-02T05:48:59.186Z,4.50
2022-10-02T05:51:44.198Z,6.10
2022-10-02T05:54:27.788Z,4.20
2022-10-02T05:57:26.297Z,3.90
2022-10-02T06:00:04.296Z,10.00
2022-10-02T06:02:43.275Z,3.73
2022-10-02T06:05:19.013Z,3.73
2022-10-02T06:07:48.682Z,4.93
2022-10-02T06:10:19.304Z,3.27
2022-10-02T06:12:54.262Z,3.57
2022-10-02T06:15:33.214Z,3.50
2022-10-02T06:18:05.224Z,3.67
2022-10-02T06:20:40.543Z,4.03
2022-10-02T06:23:13.494Z,3.90
2022-10-02T06:25:44.766Z,4.30
2022-10-02T06:28:20.249Z,3.80
2022-10-02T06:30:56.675Z,4.37
2022-10-02T06:33:25.240Z,5.00
2022-10-02T06:36:03.552Z,5.33
2022-10-02T06:38:32.899Z,4.67
2022-10-02T06:41:09.829Z,4.47
2022-10-02T06:43:53.804Z,5.43
2022-10-02T06:46:39.052Z,5.50
2022-10-02T06:49:11.096Z,5.20
2022-10-02T06:51:47.993Z,5.10
2022-10-02T06:54:53.988Z,6.10
2022-10-02T06:58:01.283Z,5.77
2022-10-02T07:00:28.083Z,5.47
2022-10-02T07:03:42.821Z,4.87
2022-10-02T07:06:52.709Z,4.53
2022-10-02T07:09:19.468Z,5.03
2022-10-02T07:12:08.372Z,4.80
2022-10-02T07:14:41.234Z,4.70
2022-10-02T07:17:50.446Z,5.90
2022-10-02T07:20:41.508Z,4.90
2022-10-02T07:23:30.188Z,4.63
2022-10-02T07:26:24.787Z,5.33
2022-10-02T07:29:17.890Z,5.53
2022-10-02T07:31:57.216Z,6.30
2022-10-02T07:34:29.971Z,8.43
2022-10-02T07:37:12.612Z,6.77
2022-10-02T07:39:56.114Z,5.53
2022-10-02T07:42:41.900Z,4.87
2022-10-02T07:45:20.216Z,5.30
2022-10-02T07:47:52.777Z,4.93
2022-10-02T07:50:37.094Z,4.47
2022-10-02T07:53:14.080Z,5.30
2022-10-02T07:55:43.069Z,5.93
2022-10-02T07:58:31.476Z,5.37
2022-10-02T08:01:06.044Z,5.30
2022-10-02T08:03:39.305Z,5.40
2022-10-02T08:06:06.287Z,6.30
2022-10-02T08:09:02.088Z,5.80
2022-10-02T08:11:49.134Z,5.93
2022-10-02T08:14:21.922Z,6.13
2022-10-02T08:16:51.476Z,6.27
2022-10-02T08:19:35.899Z,6.53
2022-10-02T08:22:16.445Z,14.67
2022-10-02T08:24:52.387Z,6.13
2022-10-02T08:27:24.978Z,7.00
2022-10-02T08:30:03.483Z,5.67
2022-10-02T08:32:35.044Z,5.60
2022-10-02T08:35:05.771Z,6.33
2022-10-02T08:37:39.056Z,6.57
2022-10-02T08:40:44.680Z,5.93
2022-10-02T08:43:29.663Z,5.53
2022-10-02T08:46:14.693Z,6.53
2022-10-02T08:49:18.813Z,6.37
2022-10-02T08:52:16.074Z,6.07
2022-10-02T08:55:27.172Z,6.27
2022-10-02T08:58:06.698Z,5.50
2022-10-02T09:00:49.109Z,6.50
2022-10-02T09:03:33.717Z,5.20
2022-10-02T09:06:24.527Z,6.13
2022-10-02T09:09:42.318Z,5.23
2022-10-02T09:12:44.242Z,5.50
2022-10-02T09:15:16.845Z,5.77
2022-10-02T09:17:57.289Z,7.30
2022-10-02T09:20:39.375Z,6.13
2022-10-02T09:23:30.382Z,6.07
2022-10-02T09:26:09.488Z,6.23
2022-10-02T09:29:03.882Z,5.73
2022-10-02T09:31:40.168Z,5.90
2022-10-02T09:34:30.029Z,5.30
2022-10-02T09:37:24.760Z,6.10
2022-10-02T09:40:16.264Z,5.30
2022-10-02T09:43:40.616Z,5.27
2022-10-02T09:46:36.261Z,4.80
2022-10-02T09:49:47.451Z,4.53
2022-10-02T09:52:42.800Z,4.20
2022-10-02T09:56:06.679Z,4.63
2022-10-02T09:59:02.986Z,4.87
2022-10-02T10:01:50.944Z,4.00
2022-10-02T10:05:05.078Z,3.50
2022-10-02T10:07:47.278Z,3.47
2022-10-02T10:10:29.659Z,4.13
2022-10-02T10:12:55.998Z,4.73
2022-10-02T10:15:43.935Z,4.07
2022-10-02T10:18:51.264Z,4.00
2022-10-02T10:21:37.035Z,3.60
2022-10-02T10:24:25.302Z,3.83
2022-10-02T10:27:15.517Z,3.93
2022-10-02T10:29:57.805Z,4.00
2022-10-02T10:32:24.151Z,4.00
2022-10-02T10:34:58.060Z,5.03
2022-10-02T10:37:49.245Z,3.50
2022-10-02T10:40:37.035Z,3.80
2022-10-02T10:43:42.043Z,3.97
2022-10-02T10:46:23.739Z,4.50
2022-10-02T10:49:27.914Z,3.83
2022-10-02T10:52:07.606Z,4.30
2022-10-02T10:54:48.521Z,4.00
2022-10-02T10:57:17.893Z,4.27
2022-10-02T11:00:13.074Z,3.90
2022-10-02T11:02:56.053Z,4.90
2022-10-02T11:05:46.594Z,4.60
2022-10-02T11:08:45.461Z,5.07
2022-10-02T11:11:23.217Z,3.97
2022-10-02T11:14:33.422Z,4.93
2022-10-02T11:17:14.975Z,4.13
2022-10-02T11:20:03.112Z,4.20
2022-10-02T11:22:47.983Z,4.60
2022-10-02T11:25:14.562Z,4.00
2022-10-02T11:27:57.311Z,5.03
2022-10-02T11:30:32.444Z,5.07
2022-10-02T11:33:38.207Z,3.93
2022-10-02T11:36:23.578Z,5.37
2022-10-02T11:39:15.683Z,4.17
2022-10-02T11:42:14.473Z,4.10
2022-10-02T11:44:54.555Z,3.80
2022-10-02T11:47:36.961Z,4.23
2022-10-02T11:50:40.532Z,5.20
2022-10-02T11:53:38.899Z,4.07
2022-10-02T11:56:22.236Z,4.73
2022-10-02T11:59:06.625Z,3.67
2022-10-02T12:01:45.557Z,4.00
2022-10-02T12:04:36.685Z,4.30
2022-10-02T12:07:38.343Z,3.73
2022-10-02T12:10:14.093Z,5.10
2022-10-02T12:13:15.881Z,3.63
2022-10-02T12:15:56.665Z,3.50
2022-10-02T12:18:49.682Z,3.40
2022-10-02T12:21:57.527Z,2.90
2022-10-02T12:25:02.038Z,3.13
2022-10-02T12:27:28.367Z,3.50
2022-10-02T12:30:14.833Z,3.03
2022-10-02T12:33:01.315Z,3.27
2022-10-02T12:35:39.956Z,3.23
2022-10-02T12:38:27.054Z,4.90
2022-10-02T12:41:23.962Z,3.03
2022-10-02T12:44:01.421Z,3.30
2022-10-02T12:46:30.853Z,2.97
2022-10-02T12:49:13.093Z,2.77
2022-10-02T12:52:13.044Z,3.10
2022-10-02T12:55:06.848Z,2.93
2022-10-02T12:57:58.757Z,3.30
2022-10-02T13:01:10.239Z,3.20
2022-10-02T13:03:48.891Z,2.60
2022-10-02T13:06:51.124Z,2.73
2022-10-02T13:09:28.079Z,2.73
2022-10-02T13:12:34.008Z,2.80
2022-10-02T13:15:54.865Z,2.60
2022-10-02T13:18:43.422Z,3.03
2022-10-02T13:21:20.249Z,2.80
2022-10-02T13:24:05.897Z,3.80
2022-10-02T13:26:54.522Z,2.60
2022-10-02T13:29:44.959Z,3.43
2022-10-02T13:32:36.836Z,3.03
2022-10-02T13:35:14.676Z,3.67
2022-10-02T13:37:58.651Z,3.30
2022-10-02T13:40:44.828Z,3.10
2022-10-02T13:43:30.007Z,3.23
2022-10-02T13:45:56.927Z,3.57
2022-10-02T13:48:42.827Z,3.00
2022-10-02T13:51:31.061Z,3.40
2022-10-02T13:54:12.436Z,3.50
2022-10-02T13:56:46.104Z,3.00
2022-10-02T13:59:24.589Z,3.50
2022-10-02T14:02:20.936Z,4.37
2022-10-02T14:05:00.515Z,3.37
2022-10-02T14:07:35.472Z,3.33
2022-10-02T14:10:37.825Z,3.57
2022-10-02T14:13:38.164Z,3.77
2022-10-02T14:16:20.355Z,3.57
2022-10-02T14:18:55.815Z,3.20
2022-10-02T14:21:36.952Z,3.63
2022-10-02T14:24:59.267Z,3.20
2022-10-02T14:27:31.759Z,3.70
2022-10-02T14:30:13.855Z,3.00
2022-10-02T14:33:10.382Z,2.80
2022-10-02T14:35:52.193Z,2.57
2022-10-02T14:38:56.514Z,3.30
2022-10-02T14:41:47.241Z,3.27
2022-10-02T14:44:39.466Z,3.33
2022-10-02T14:47:22.020Z,3.50
2022-10-02T14:50:03.925Z,3.30
2022-10-02T14:53:21.160Z,4.13
2022-10-02T14:55:59.823Z,4.10
2022-10-02T14:58:41.490Z,2.90
2022-10-02T15:01:18.289Z,3.50
2022-10-02T15:04:03.059Z,3.00
2022-10-02T15:06:41.051Z,3.67
2022-10-02T15:09:18.827Z,3.00
2022-10-02T15:11:53.923Z,3.30
2022-10-02T15:14:54.313Z,2.83
2022-10-02T15:17:59.964Z,2.93
2022-10-02T15:21:01.117Z,3.47
2022-10-02T15:23:33.530Z,3.53
2022-10-02T15:26:19.778Z,4.03
2022-10-02T15:29:07.494Z,2.90
2022-10-02T15:32:02.594Z,3.03
2022-10-02T15:35:03.154Z,3.60
2022-10-02T15:37:32.756Z,3.30
2022-10-02T15:40:05.962Z,3.20
2022-10-02T15:42:50.022Z,3.60
2022-10-02T15:45:31.495Z,3.37
2022-10-02T15:48:34.471Z,3.33
2022-10-02T15:51:05.400Z,4.33
2022-10-02T15:53:51.414Z,3.33
2022-10-02T15:56:26.839Z,3.47
2022-10-02T15:59:28.789Z,3.70
2022-10-02T16:02:27.155Z,3.10
2022-10-02T16:05:22.756Z,3.70
2022-10-02T16:08:08.796Z,2.57
2022-10-02T16:11:19.115Z,3.40
2022-10-02T16:14:06.221Z,3.50
2022-10-02T16:16:42.137Z,3.47
2022-10-02T16:19:30.693Z,3.17
2022-10-02T16:22:17.033Z,3.47
2022-10-02T16:25:03.410Z,2.97
2022-10-02T16:27:52.504Z,3.67
2022-10-02T16:30:24.553Z,3.40
2022-10-02T16:33:13.106Z,3.80
2022-10-02T16:35:48.675Z,3.10
2022-10-02T16:38:41.915Z,3.07
2022-10-02T16:41:26.122Z,3.77
2022-10-02T16:44:28.451Z,3.50
2022-10-02T16:47:07.384Z,4.10
2022-10-02T16:49:48.572Z,4.67
2022-10-02T16:52:29.360Z,3.83
2022-10-02T16:55:40.245Z,4.67
2022-10-02T16:58:27.215Z,4.83
2022-10-02T17:01:25.269Z,4.60
2022-10-02T17:03:56.524Z,4.60
2022-10-02T17:06:24.467Z,4.23
2022-10-02T17:09:09.699Z,4.77
2022-10-02T17:11:47.822Z,3.30
2022-10-02T17:14:37.579Z,4.50
2022-10-02T17:17:20.353Z,3.87
2022-10-02T17:20:06.941Z,4.30
2022-10-02T17:22:45.595Z,4.30
2022-10-02T17:25:34.402Z,4.53
2022-10-02T17:28:20.864Z,4.47
2022-10-02T17:31:15.143Z,7.33
2022-10-02T17:33:50.713Z,5.10
2022-10-02T17:36:36.987Z,5.23
2022-10-02T17:39:15.663Z,4.97
2022-10-02T17:41:58.468Z,5.10
2022-10-02T17:44:35.188Z,5.57
2022-10-02T17:47:28.101Z,4.80
2022-10-02T17:50:25.303Z,5.70
2022-10-02T17:53:29.375Z,7.37
2022-10-02T17:56:30.676Z,5.10
2022-10-02T17:59:26.179Z,5.80
2022-10-02T18:02:17.721Z,3.57
2022-10-02T18:05:21.960Z,5.50
2022-10-02T18:07:52.438Z,4.27
2022-10-02T18:10:31.029Z,4.67
2022-10-02T18:13:16.207Z,3.67
2022-10-02T18:15:50.700Z,4.63
2022-10-02T18:18:32.904Z,4.00
2022-10-02T18:21:13.990Z,4.27
2022-10-02T18:23:55.691Z,4.70
2022-10-02T18:27:01.020Z,4.70
2022-10-02T18:29:34.558Z,7.30
2022-10-02T18:32:36.275Z,6.83
2022-10-02T18:35:23.939Z,4.27
2022-10-02T18:38:29.650Z,4.37
2022-10-02T18:41:08.454Z,4.50
2022-10-02T18:44:07.155Z,3.40
2022-10-02T18:46:46.848Z,3.07
2022-10-02T18:49:39.673Z,4.80
2022-10-02T18:52:30.635Z,4.10
2022-10-02T18:54:57.093Z,4.03
2022-10-02T18:57:41.543Z,3.67
2022-10-02T19:00:22.089Z,3.57
2022-10-02T19:03:19.757Z,3.87
2022-10-02T19:05:55.508Z,3.87
2022-10-02T19:09:11.039Z,4.60
2022-10-02T19:11:47.256Z,4.70
2022-10-02T19:14:25.756Z,4.20
2022-10-02T19:17:01.695Z,4.30
2022-10-02T19:19:29.536Z,4.80
2022-10-02T19:22:08.840Z,4.60
2022-10-02T19:24:39.745Z,5.17
2022-10-02T19:27:14.327Z,5.97
2022-10-02T19:29:48.534Z,6.13
2022-10-02T19:32:23.017Z,6.40
2022-10-02T19:34:57.951Z,6.30
2022-10-02T19:37:26.361Z,5.20
2022-10-02T19:39:57.730Z,5.10
2022-10-02T19:42:27.903Z,4.60
2022-10-02T19:45:02.988Z,4.70
2022-10-02T19:47:49.382Z,4.37
2022-10-02T19:50:23.288Z,3.97
2022-10-02T19:53:22.065Z,3.70
2022-10-02T19:55:55.655Z,3.50
2022-10-02T19:58:27.968Z,3.30
2022-10-02T20:00:56.054Z,3.37
2022-10-02T20:03:25.087Z,3.90
2022-10-02T20:05:56.514Z,4.33
2022-10-02T20:08:30.717Z,7.37
2022-10-02T20:11:03.865Z,15.40
2022-10-02T20:13:53.943Z,11.40
2022-10-02T20:16:43.952Z,9.13
2022-10-02T20:19:25.811Z,8.43
2022-10-02T20:21:58.010Z,7.90
2022-10-02T20:24:39.972Z,5.53
2022-10-02T20:27:17.344Z,4.93
2022-10-02T20:29:52.792Z,3.63
2022-10-02T20:32:26.883Z,5.27
2022-10-02T20:35:07.217Z,4.10
2022-10-02T20:37:34.920Z,3.97
2022-10-02T20:40:30.208Z,4.50
2022-10-02T20:43:00.649Z,4.17
2022-10-02T20:45:37.825Z,3.80
2022-10-02T20:48:24.368Z,3.40
2022-10-02T20:51:01.793Z,3.80
2022-10-02T20:54:02.269Z,3.20
2022-10-02T20:56:41.819Z,3.03
2022-10-02T20:59:26.919Z,2.97
2022-10-02T21:02:20.866Z,3.40
2022-10-02T21:05:05.967Z,3.07
2022-10-02T21:07:56.980Z,3.23
2022-10-02T21:10:48.191Z,3.23
2022-10-02T21:13:31.089Z,3.00
2022-10-02T21:16:29.232Z,2.77
2022-10-02T21:19:11.942Z,2.97
2022-10-02T21:22:12.424Z,3.10
2022-10-02T21:24:57.641Z,2.83
2022-10-02T21:27:35.768Z,3.20
2022-10-02T21:30:14.076Z,3.83
2022-10-02T21:33:00.135Z,3.20
2022-10-02T21:36:08.760Z,3.67
2022-10-02T21:38:56.488Z,3.07
2022-10-02T21:42:02.159Z,3.63
2022-10-02T21:44:28.569Z,3.00
2022-10-02T21:47:43.747Z,3.67
2022-10-02T21:50:28.533Z,2.77
2022-10-02T21:53:16.823Z,3.20
2022-10-02T21:56:30.227Z,2.97
2022-10-02T21:59:15.936Z,3.50
2022-10-02T22:02:37.181Z,2.80
2022-10-02T22:05:23.198Z,2.60
2022-10-02T22:08:08.057Z,2.53
2022-10-02T22:10:55.296Z,2.73
2022-10-02T22:13:32.739Z,2.63
2022-10-02T22:15:59.539Z,2.77
2022-10-02T22:18:44.112Z,2.87
2022-10-02T22:21:51.989Z,2.60
2022-10-02T22:24:39.650Z,2.80
2022-10-02T22:27:18.065Z,3.13
2022-10-02T22:29:48.265Z,3.23
2022-10-02T22:32:36.497Z,2.93
2022-10-02T22:35:23.458Z,3.53
2022-10-02T22:38:05.136Z,3.70
2022-10-02T22:40:44.325Z,3.30
2022-10-02T22:43:21.079Z,3.40
2022-10-02T22:45:58.804Z,2.90
2022-10-02T22:48:31.275Z,3.50
2022-10-02T22:51:19.026Z,3.80
2022-10-02T22:53:53.762Z,3.53
2022-10-02T22:56:31.316Z,3.23
2022-10-02T22:59:22.167Z,3.73
2022-10-02T23:02:05.708Z,3.73
2022-10-02T23:04:44.436Z,3.53
2022-10-02T23:07:26.870Z,4.13
2022-10-02T23:10:01.724Z,3.10
2022-10-02T23:12:39.539Z,2.97
2022-10-02T23:15:41.727Z,3.10
2022-10-02T23:18:23.343Z,3.30
2022-10-02T23:21:16.613Z,3.60
2022-10-02T23:23:42.966Z,3.20
2022-10-02T23:26:26.523Z,3.47
2022-10-02T23:29:17.331Z,3.47
2022-10-02T23:32:00.157Z,3.30
2022-10-02T23:34:34.384Z,3.23
2022-10-02T23:37:13.591Z,3.50
2022-10-02T23:40:13.772Z,4.20
2022-10-02T23:42:45.659Z,2.90
2022-10-02T23:45:27.093Z,3.47
2022-10-02T23:47:59.439Z,2.90
2022-10-02T23:50:49.053Z,3.40
2022-10-02T23:53:42.859Z,3.27
2022-10-02T23:56:50.749Z,3.00
2022-10-02T23:59:17.077Z,3.50
